createdAt,value
2017-10-30T00:01:46.435Z,98999.84
2017-10-30T00:04:13.935Z,99025.61
2017-10-30T00:06:41.432Z,99009.96
2017-10-30T00:09:08.919Z,99016.32
2017-10-30T00:11:36.494Z,99047.66
2017-10-30T00:14:03.982Z,99027.27
2017-10-30T00:16:33.548Z,99029.80
2017-10-30T00:19:01.061Z,99041.67
2017-10-30T00:21:28.540Z,99043.31
2017-10-30T00:23:56.020Z,99037.38
2017-10-30T00:26:23.501Z,99045.38
2017-10-30T00:28:50.983Z,99042.44
2017-10-30T00:31:18.445Z,99061.41
2017-10-30T00:33:45.926Z,99051.66
2017-10-30T00:36:13.447Z,99064.31
2017-10-30T00:38:40.901Z,99072.72
2017-10-30T00:41:08.365Z,99066.32
2017-10-30T00:43:36.532Z,99070.50
2017-10-30T00:46:03.994Z,99082.38
2017-10-30T00:48:31.471Z,99074.38
2017-10-30T00:50:58.963Z,99076.05
2017-10-30T00:53:26.426Z,99067.23
2017-10-30T00:55:54.323Z,99071.05
2017-10-30T00:58:21.770Z,99083.38
2017-10-30T01:00:49.274Z,99065.47
2017-10-30T01:03:17.626Z,99069.78
2017-10-30T01:05:45.968Z,99063.84
2017-10-30T01:08:13.453Z,99065.44
2017-10-30T01:10:40.943Z,99071.74
2017-10-30T01:13:08.430Z,99059.48
2017-10-30T01:15:35.889Z,99059.50
2017-10-30T01:18:03.353Z,99071.84
2017-10-30T01:20:30.829Z,99079.38
2017-10-30T01:22:58.706Z,99081.53
2017-10-30T01:25:26.162Z,99085.72
2017-10-30T01:27:53.621Z,99094.14
2017-10-30T01:30:21.094Z,99096.69
2017-10-30T01:32:48.562Z,99077.53
2017-10-30T01:35:16.025Z,99086.44
2017-10-30T01:37:43.498Z,99087.59
2017-10-30T01:40:11.658Z,99138.45
2017-10-30T01:42:39.124Z,99174.38
2017-10-30T01:45:06.574Z,99196.44
2017-10-30T01:47:34.053Z,99164.36
2017-10-30T01:50:01.520Z,99170.30
2017-10-30T01:52:28.972Z,99154.95
2017-10-30T01:54:56.441Z,99146.77
2017-10-30T01:57:24.799Z,99142.88
2017-10-30T01:59:52.283Z,99139.03
2017-10-30T02:02:19.773Z,99160.54
2017-10-30T02:04:47.237Z,99135.08
2017-10-30T02:07:14.726Z,99137.59
2017-10-30T02:09:42.226Z,99139.29
2017-10-30T02:12:09.666Z,99143.98
2017-10-30T02:14:37.124Z,99142.27
2017-10-30T02:17:04.606Z,99130.71
2017-10-30T02:19:32.075Z,99106.05
2017-10-30T02:21:59.658Z,99125.98
2017-10-30T02:24:27.160Z,99135.27
2017-10-30T02:26:54.612Z,99134.34
2017-10-30T02:29:22.083Z,99156.84
2017-10-30T02:31:49.570Z,99141.59
2017-10-30T02:34:17.055Z,99148.01
2017-10-30T02:36:44.575Z,99141.63
2017-10-30T02:39:12.057Z,99147.14
2017-10-30T02:41:39.577Z,99120.00
2017-10-30T02:44:07.140Z,99145.91
2017-10-30T02:46:34.710Z,99172.97
2017-10-30T02:49:02.191Z,99176.37
2017-10-30T02:51:29.699Z,99163.20
2017-10-30T02:53:57.242Z,99187.84
2017-10-30T02:56:24.732Z,99172.99
2017-10-30T02:58:52.239Z,99172.55
2017-10-30T03:01:19.723Z,99155.64
2017-10-30T03:03:47.213Z,99154.34
2017-10-30T03:06:14.749Z,99173.84
2017-10-30T03:08:42.238Z,99174.66
2017-10-30T03:11:09.836Z,99177.62
2017-10-30T03:13:37.354Z,99176.81
2017-10-30T03:16:04.834Z,99189.46
2017-10-30T03:18:32.331Z,99192.52
2017-10-30T03:20:59.856Z,99194.26
2017-10-30T03:23:27.391Z,99196.44
2017-10-30T03:25:54.905Z,99198.16
2017-10-30T03:28:22.421Z,99198.55
2017-10-30T03:30:49.930Z,99214.69
2017-10-30T03:33:17.441Z,99194.30
2017-10-30T03:35:44.979Z,99217.13
2017-10-30T03:38:12.474Z,99218.03
2017-10-30T03:40:39.956Z,99216.40
2017-10-30T03:43:07.484Z,99208.34
2017-10-30T03:45:35.000Z,99217.67
2017-10-30T03:48:02.486Z,99223.21
2017-10-30T03:50:30.020Z,99222.77
2017-10-30T03:52:57.534Z,99235.95
2017-10-30T03:55:25.015Z,99231.28
2017-10-30T03:57:52.502Z,99227.46
2017-10-30T04:00:19.966Z,99227.90
2017-10-30T04:02:47.430Z,99236.83
2017-10-30T04:05:14.915Z,99232.57
2017-10-30T04:07:42.392Z,99246.14
2017-10-30T04:10:09.853Z,99240.25
2017-10-30T04:12:37.332Z,99253.37
2017-10-30T04:15:05.561Z,99269.02
2017-10-30T04:17:33.042Z,99244.87
2017-10-30T04:20:00.514Z,99250.00
2017-10-30T04:22:27.975Z,99255.46
2017-10-30T04:24:55.461Z,99255.08
2017-10-30T04:27:22.987Z,99258.49
2017-10-30T04:29:50.476Z,99260.17
2017-10-30T04:32:17.953Z,99256.80
2017-10-30T04:34:45.483Z,99255.97
2017-10-30T04:37:12.984Z,99258.89
2017-10-30T04:39:40.451Z,99277.14
2017-10-30T04:42:07.995Z,99266.12
2017-10-30T04:44:35.456Z,99277.16
2017-10-30T04:47:02.920Z,99268.67
2017-10-30T04:49:30.424Z,99290.25
2017-10-30T04:51:57.898Z,99275.44
2017-10-30T04:54:25.342Z,99286.03
2017-10-30T04:56:52.836Z,99280.08
2017-10-30T04:59:21.095Z,99270.77
2017-10-30T05:01:48.554Z,99291.97
2017-10-30T05:04:16.052Z,99302.09
2017-10-30T05:06:43.522Z,99300.37
2017-10-30T05:09:11.013Z,99283.89
2017-10-30T05:11:38.495Z,99293.63
2017-10-30T05:14:05.952Z,99308.47
2017-10-30T05:16:33.896Z,99297.45
2017-10-30T05:19:01.445Z,99316.50
2017-10-30T05:21:28.925Z,99319.88
2017-10-30T05:23:56.429Z,99308.88
2017-10-30T05:26:24.773Z,99307.65
2017-10-30T05:28:52.244Z,99318.23
2017-10-30T05:31:19.729Z,99317.78
2017-10-30T05:33:47.221Z,99327.55
2017-10-30T05:36:14.669Z,99334.73
2017-10-30T05:38:42.121Z,99325.44
2017-10-30T05:41:09.588Z,99335.61
2017-10-30T05:43:37.116Z,99334.31
2017-10-30T05:46:04.575Z,99343.22
2017-10-30T05:48:32.104Z,99337.30
2017-10-30T05:50:59.593Z,99338.98
2017-10-30T05:53:27.131Z,99333.92
2017-10-30T05:55:54.608Z,99341.52
2017-10-30T05:58:22.093Z,99358.44
2017-10-30T06:00:49.552Z,99357.16
2017-10-30T06:03:17.013Z,99372.83
2017-10-30T06:05:44.486Z,99349.44
2017-10-30T06:08:12.557Z,99357.48
2017-10-30T06:10:40.070Z,99366.30
2017-10-30T06:13:07.519Z,99359.03
2017-10-30T06:15:35.039Z,99368.37
2017-10-30T06:18:02.518Z,99375.13
2017-10-30T06:20:30.977Z,99380.67
2017-10-30T06:22:58.430Z,99390.41
2017-10-30T06:25:25.941Z,99372.56
2017-10-30T06:27:54.048Z,99379.77
2017-10-30T06:30:21.536Z,99389.03
2017-10-30T06:32:49.022Z,99415.79
2017-10-30T06:35:16.491Z,99379.70
2017-10-30T06:37:43.994Z,99376.25
2017-10-30T06:40:11.496Z,99387.70
2017-10-30T06:42:38.960Z,99442.83
2017-10-30T06:45:06.411Z,99399.11
2017-10-30T06:47:33.934Z,99416.88
2017-10-30T06:50:01.464Z,99399.49
2017-10-30T06:52:29.509Z,99407.08
2017-10-30T06:54:57.066Z,99400.27
2017-10-30T06:57:24.574Z,99416.02
2017-10-30T06:59:52.076Z,99406.61
2017-10-30T07:02:31.193Z,99446.98
2017-10-30T07:04:58.729Z,99443.98
2017-10-30T07:07:26.228Z,99415.55
2017-10-30T07:09:53.801Z,99420.18
2017-10-30T07:12:21.297Z,99430.75
2017-10-30T07:14:48.804Z,99438.78
2017-10-30T07:17:16.293Z,99479.22
2017-10-30T07:19:43.877Z,99449.09
2017-10-30T07:22:11.377Z,99445.33
2017-10-30T07:24:38.925Z,99447.04
2017-10-30T07:27:06.442Z,99464.90
2017-10-30T07:29:34.002Z,99464.41
2017-10-30T07:32:02.845Z,99448.22
2017-10-30T07:34:30.347Z,99458.03
2017-10-30T07:36:57.859Z,99463.19
2017-10-30T07:39:25.365Z,99461.52
2017-10-30T07:41:55.701Z,99472.61
2017-10-30T07:44:23.178Z,99486.55
2017-10-30T07:46:50.670Z,99481.94
2017-10-30T07:49:18.203Z,99486.16
2017-10-30T07:51:47.242Z,99477.25
2017-10-30T07:54:14.821Z,99488.28
2017-10-30T07:56:42.302Z,99526.50
2017-10-30T07:59:10.337Z,99520.95
2017-10-30T08:01:37.799Z,99492.59
2017-10-30T08:04:05.287Z,99500.98
2017-10-30T08:06:32.807Z,99508.14
2017-10-30T08:09:00.265Z,99491.52
2017-10-30T08:11:27.741Z,99497.01
2017-10-30T08:13:55.250Z,99492.77
2017-10-30T08:16:22.839Z,99497.42
2017-10-30T08:18:50.320Z,99497.47
2017-10-30T08:21:17.816Z,99506.69
2017-10-30T08:23:45.287Z,99527.48
2017-10-30T08:26:12.784Z,99519.46
2017-10-30T08:28:40.948Z,99527.48
2017-10-30T08:31:08.400Z,99521.68
2017-10-30T08:33:35.887Z,99526.83
2017-10-30T08:36:03.374Z,99536.09
2017-10-30T08:38:30.845Z,99533.08
2017-10-30T08:40:58.312Z,99544.56
2017-10-30T08:43:25.892Z,99569.27
2017-10-30T08:45:53.356Z,99549.30
2017-10-30T08:48:21.418Z,99566.22
2017-10-30T08:50:48.935Z,99536.50
2017-10-30T08:53:16.466Z,99542.44
2017-10-30T08:55:43.954Z,99540.72
2017-10-30T08:58:11.479Z,99557.80
2017-10-30T09:00:38.998Z,99563.81
2017-10-30T09:03:06.485Z,99557.08
2017-10-30T09:05:34.026Z,99551.11
2017-10-30T09:08:01.990Z,99577.02
2017-10-30T09:10:29.481Z,99589.28
2017-10-30T09:12:57.017Z,99566.75
2017-10-30T09:15:24.558Z,99575.21
2017-10-30T09:17:52.035Z,99579.40
2017-10-30T09:20:19.566Z,99556.83
2017-10-30T09:22:47.070Z,99558.00
2017-10-30T09:25:14.584Z,99572.41
2017-10-30T09:27:42.110Z,99577.42
2017-10-30T09:30:10.024Z,99578.25
2017-10-30T09:32:37.492Z,99590.09
2017-10-30T09:35:04.978Z,99547.98
2017-10-30T09:37:32.454Z,99561.59
2017-10-30T09:39:59.942Z,99561.70
2017-10-30T09:42:28.216Z,99552.13
2017-10-30T09:44:56.482Z,99546.58
2017-10-30T09:47:23.958Z,99557.27
2017-10-30T09:49:52.302Z,99551.42
2017-10-30T09:52:19.810Z,99588.78
2017-10-30T09:54:47.786Z,99571.47
2017-10-30T09:57:16.377Z,99602.30
2017-10-30T09:59:43.882Z,99584.98
2017-10-30T10:02:11.381Z,99568.69
2017-10-30T10:04:38.965Z,99558.01
2017-10-30T10:07:06.522Z,99569.44
2017-10-30T10:09:34.043Z,99576.59
2017-10-30T10:12:01.548Z,99548.76
2017-10-30T10:14:29.065Z,99575.96
2017-10-30T10:16:56.550Z,99573.41
2017-10-30T10:19:24.042Z,99559.52
2017-10-30T10:21:51.566Z,99556.45
2017-10-30T10:24:19.093Z,99566.03
2017-10-30T10:26:46.601Z,99574.63
2017-10-30T10:29:14.109Z,99588.47
2017-10-30T10:31:41.593Z,99561.52
2017-10-30T10:34:09.047Z,99562.23
2017-10-30T10:36:37.464Z,99554.97
2017-10-30T10:39:04.986Z,99549.56
2017-10-30T10:41:32.442Z,99568.16
2017-10-30T10:44:00.018Z,99583.53
2017-10-30T10:46:27.493Z,99573.86
2017-10-30T10:48:54.962Z,99615.34
2017-10-30T10:51:22.462Z,99669.92
2017-10-30T10:53:49.956Z,99644.02
2017-10-30T10:56:17.414Z,99641.80
2017-10-30T10:58:44.940Z,99646.42
2017-10-30T11:01:12.393Z,99645.08
2017-10-30T11:03:40.383Z,99636.27
2017-10-30T11:06:09.223Z,99605.84
2017-10-30T11:08:38.203Z,99608.80
2017-10-30T11:11:05.717Z,99598.68
2017-10-30T11:13:33.193Z,99614.42
2017-10-30T11:16:00.661Z,99600.41
2017-10-30T11:18:28.199Z,99605.02
2017-10-30T11:20:55.675Z,99604.55
2017-10-30T11:23:23.121Z,99604.53
2017-10-30T11:25:50.592Z,99615.95
2017-10-30T11:28:18.062Z,99610.34
2017-10-30T11:30:45.550Z,99626.41
2017-10-30T11:33:12.994Z,99613.61
2017-10-30T11:35:40.500Z,99598.55
2017-10-30T11:38:07.977Z,99602.16
2017-10-30T11:40:35.469Z,99610.48
2017-10-30T11:43:02.927Z,99608.35
2017-10-30T11:45:30.662Z,99607.02
2017-10-30T11:47:58.142Z,99601.75
2017-10-30T11:50:25.600Z,99593.91
2017-10-30T11:52:53.059Z,99589.81
2017-10-30T11:55:21.442Z,99591.84
2017-10-30T11:57:51.397Z,99606.94
2017-10-30T12:00:18.877Z,99594.61
2017-10-30T12:02:46.409Z,99607.25
2017-10-30T12:05:13.890Z,99606.19
2017-10-30T12:07:41.376Z,99604.13
2017-10-30T12:10:10.142Z,99611.94
2017-10-30T12:12:37.702Z,99612.30
2017-10-30T12:15:05.184Z,99616.38
2017-10-30T12:17:32.642Z,99611.27
2017-10-30T12:20:00.103Z,99607.44
2017-10-30T12:22:27.605Z,99601.15
2017-10-30T12:24:55.080Z,99624.61
2017-10-30T12:27:22.538Z,99631.59
2017-10-30T12:29:50.041Z,99622.25
2017-10-30T12:32:17.485Z,99627.33
2017-10-30T12:34:44.979Z,99698.48
2017-10-30T12:37:12.442Z,99643.21
2017-10-30T12:39:39.913Z,99633.72
2017-10-30T12:42:07.390Z,99659.64
2017-10-30T12:44:34.868Z,99631.98
2017-10-30T12:47:02.330Z,99635.39
2017-10-30T12:49:29.801Z,99634.05
2017-10-30T12:51:57.317Z,99640.56
2017-10-30T12:54:24.810Z,99642.11
2017-10-30T12:56:52.301Z,99648.50
2017-10-30T12:59:19.849Z,99643.97
2017-10-30T13:01:47.324Z,99648.05
2017-10-30T13:04:14.805Z,99691.89
2017-10-30T13:06:42.298Z,99670.85
2017-10-30T13:09:09.838Z,99660.66
2017-10-30T13:11:37.320Z,99679.08
2017-10-30T13:14:05.604Z,99661.48
2017-10-30T13:19:05.883Z,99674.42
2017-10-30T13:21:33.358Z,99669.38
2017-10-30T13:24:00.852Z,99668.92
2017-10-30T13:26:29.318Z,99674.81
2017-10-30T13:28:56.789Z,99679.53
2017-10-30T13:31:24.255Z,99692.29
2017-10-30T13:33:51.737Z,99688.87
2017-10-30T13:36:19.221Z,99700.00
2017-10-30T13:38:46.690Z,99710.52
2017-10-30T13:41:14.195Z,99695.50
2017-10-30T13:43:41.725Z,99686.73
2017-10-30T13:46:09.185Z,99708.49
2017-10-30T13:48:36.666Z,99693.34
2017-10-30T13:51:04.148Z,99691.39
2017-10-30T13:53:31.636Z,99707.56
2017-10-30T13:55:59.157Z,99702.72
2017-10-30T13:58:26.641Z,99727.58
2017-10-30T14:00:54.130Z,99729.44
2017-10-30T14:03:21.604Z,99731.09
2017-10-30T14:05:49.064Z,99720.72
2017-10-30T14:08:16.590Z,99710.15
2017-10-30T14:10:44.085Z,99720.56
2017-10-30T14:13:11.571Z,99734.22
2017-10-30T14:15:39.138Z,99729.19
2017-10-30T14:18:06.836Z,99733.48
2017-10-30T14:20:34.299Z,99722.84
2017-10-30T14:23:01.763Z,99734.77
2017-10-30T14:25:29.249Z,99739.91
2017-10-30T14:27:56.718Z,99743.16
2017-10-30T14:30:24.287Z,99733.24
2017-10-30T14:32:51.785Z,99746.77
2017-10-30T14:35:19.289Z,99741.58
2017-10-30T14:37:46.777Z,99745.00
2017-10-30T14:40:14.320Z,99744.06
2017-10-30T14:42:41.827Z,99745.67
2017-10-30T14:45:09.309Z,99746.67
2017-10-30T14:47:36.794Z,99743.38
2017-10-30T14:50:04.259Z,99749.80
2017-10-30T14:52:31.741Z,99772.01
2017-10-30T14:54:59.266Z,99745.34
2017-10-30T14:57:26.781Z,99776.93
2017-10-30T14:59:54.356Z,99770.88
2017-10-30T15:02:21.881Z,99794.08
2017-10-30T15:04:49.369Z,99808.38
2017-10-30T15:07:16.845Z,99848.56
2017-10-30T15:09:44.311Z,99882.58
2017-10-30T15:12:11.969Z,99791.62
2017-10-30T15:14:39.451Z,99805.11
2017-10-30T15:17:06.972Z,99798.33
2017-10-30T15:19:34.471Z,99808.09
2017-10-30T15:22:02.052Z,99820.38
2017-10-30T15:24:29.578Z,99805.18
2017-10-30T15:26:57.072Z,99812.40
2017-10-30T15:29:24.689Z,99819.20
2017-10-30T15:31:52.179Z,99822.59
2017-10-30T15:34:19.660Z,99835.80
2017-10-30T15:36:47.117Z,99837.08
2017-10-30T15:39:14.718Z,99837.08
2017-10-30T15:41:42.283Z,99847.67
2017-10-30T15:44:09.779Z,99845.14
2017-10-30T15:46:37.311Z,99832.43
2017-10-30T15:49:04.783Z,99867.66
2017-10-30T15:51:32.257Z,99858.34
2017-10-30T15:53:59.818Z,99857.09
2017-10-30T15:56:27.393Z,99863.03
2017-10-30T15:58:54.927Z,99874.05
2017-10-30T16:01:22.471Z,99879.56
2017-10-30T16:03:50.019Z,99876.59
2017-10-30T16:06:17.488Z,99888.47
2017-10-30T16:08:44.970Z,99893.16
2017-10-30T16:11:12.433Z,99891.49
2017-10-30T16:13:39.918Z,99919.48
2017-10-30T16:16:07.394Z,99910.58
2017-10-30T16:18:34.862Z,99919.91
2017-10-30T16:21:02.379Z,99908.47
2017-10-30T16:23:29.861Z,99910.56
2017-10-30T16:25:57.347Z,99926.25
2017-10-30T16:28:24.805Z,99927.53
2017-10-30T16:30:52.298Z,99937.30
2017-10-30T16:33:19.847Z,99941.98
2017-10-30T16:35:47.337Z,99942.84
2017-10-30T16:38:14.853Z,99938.13
2017-10-30T16:40:42.318Z,99952.17
2017-10-30T16:43:09.797Z,99966.60
2017-10-30T16:45:37.273Z,99950.05
2017-10-30T16:48:04.742Z,99969.99
2017-10-30T16:50:32.245Z,99970.43
2017-10-30T16:52:59.726Z,99968.75
2017-10-30T16:55:27.223Z,99978.94
2017-10-30T16:57:54.687Z,99985.25
2017-10-30T17:00:22.185Z,99994.16
2017-10-30T17:02:49.638Z,99986.52
2017-10-30T17:05:17.086Z,99986.49
2017-10-30T17:07:44.561Z,100002.63
2017-10-30T17:10:12.089Z,100001.81
2017-10-30T17:12:39.567Z,100012.40
2017-10-30T17:15:07.057Z,100006.47
2017-10-30T17:17:34.524Z,100006.87
2017-10-30T17:20:01.979Z,100008.59
2017-10-30T17:22:29.460Z,100014.96
2017-10-30T17:24:56.917Z,100009.87
2017-10-30T17:27:24.396Z,100035.28
2017-10-30T17:29:51.871Z,100017.08
2017-10-30T17:32:19.350Z,100024.70
2017-10-30T17:34:46.851Z,100044.22
2017-10-30T17:37:14.314Z,100046.75
2017-10-30T17:39:41.831Z,100042.89
2017-10-30T17:42:09.296Z,100042.84
2017-10-30T17:44:36.778Z,100051.27
2017-10-30T17:47:04.270Z,100063.58
2017-10-30T17:49:31.784Z,100051.71
2017-10-30T17:51:59.297Z,100059.33
2017-10-30T17:54:26.755Z,100058.42
2017-10-30T17:56:54.219Z,100061.42
2017-10-30T17:59:21.736Z,100062.34
2017-10-30T18:01:49.200Z,100069.03
2017-10-30T18:04:16.663Z,100066.88
2017-10-30T18:06:44.154Z,100072.73
2017-10-30T18:09:11.642Z,100073.59
2017-10-30T18:11:39.126Z,100079.97
2017-10-30T18:14:07.706Z,100079.50
2017-10-30T18:16:35.178Z,100087.13
2017-10-30T18:19:02.658Z,100091.87
2017-10-30T18:21:30.158Z,100085.16
2017-10-30T18:23:57.618Z,100089.89
2017-10-30T18:26:25.119Z,100094.16
2017-10-30T18:31:20.127Z,100111.60
2017-10-30T18:33:47.880Z,100100.52
2017-10-30T18:36:15.401Z,100110.77
2017-10-30T18:38:42.865Z,100116.27
2017-10-30T18:41:10.419Z,100117.59
2017-10-30T18:43:37.947Z,100124.37
2017-10-30T18:46:05.520Z,100119.20
2017-10-30T18:48:32.980Z,100122.30
2017-10-30T18:51:00.547Z,100121.43
2017-10-30T18:53:28.073Z,100111.26
2017-10-30T18:55:55.536Z,100131.17
2017-10-30T18:58:23.025Z,100124.81
2017-10-30T19:00:50.595Z,100144.38
2017-10-30T19:03:18.102Z,100121.92
2017-10-30T19:05:45.586Z,100118.91
2017-10-30T19:08:13.056Z,100124.91
2017-10-30T19:10:40.553Z,100129.15
2017-10-30T19:13:08.095Z,100138.06
2017-10-30T19:15:35.745Z,100144.81
2017-10-30T19:18:03.231Z,100149.05
2017-10-30T19:20:30.740Z,100169.84
2017-10-30T19:22:58.222Z,100166.41
2017-10-30T19:25:25.698Z,100171.12
2017-10-30T19:27:53.209Z,100167.66
2017-10-30T19:30:20.678Z,100176.98
2017-10-30T19:32:48.158Z,100177.43
2017-10-30T19:35:15.673Z,100172.78
2017-10-30T19:37:43.151Z,100188.95
2017-10-30T19:40:10.629Z,100180.80
2017-10-30T19:42:38.106Z,100184.11
2017-10-30T19:45:05.644Z,100191.72
2017-10-30T19:47:33.172Z,100195.56
2017-10-30T19:50:00.709Z,100198.58
2017-10-30T19:52:28.245Z,100195.55
2017-10-30T19:54:55.786Z,100203.98
2017-10-30T19:57:23.290Z,100204.91
2017-10-30T19:59:50.808Z,100203.08
2017-10-30T20:02:18.355Z,100211.95
2017-10-30T20:04:46.110Z,100207.84
2017-10-30T20:07:19.369Z,100221.00
2017-10-30T20:09:52.484Z,100215.50
2017-10-30T20:12:25.466Z,100235.00
2017-10-30T20:14:53.052Z,100232.88
2017-10-30T20:17:20.531Z,100229.50
2017-10-30T20:19:48.002Z,100231.70
2017-10-30T20:22:15.508Z,100227.02
2017-10-30T20:24:42.996Z,100227.02
2017-10-30T20:27:10.478Z,100238.04
2017-10-30T20:29:37.982Z,100229.14
2017-10-30T20:32:05.465Z,100239.73
2017-10-30T20:34:32.937Z,100237.56
2017-10-30T20:37:00.412Z,100235.01
2017-10-30T20:39:27.940Z,100238.81
2017-10-30T20:41:55.392Z,100247.77
2017-10-30T20:44:22.879Z,100240.09
2017-10-30T20:46:50.357Z,100237.62
2017-10-30T20:49:17.815Z,100230.83
2017-10-30T20:51:45.296Z,100243.39
2017-10-30T20:54:12.774Z,100261.72
2017-10-30T20:56:40.255Z,100246.78
2017-10-30T20:59:07.728Z,100259.12
2017-10-30T21:01:35.207Z,100245.97
2017-10-30T21:04:02.710Z,100256.14
2017-10-30T21:06:30.233Z,100244.21
2017-10-30T21:08:57.708Z,100248.41
2017-10-30T21:11:25.177Z,100249.73
2017-10-30T21:13:52.718Z,100277.67
2017-10-30T21:16:20.189Z,100246.27
2017-10-30T21:18:47.916Z,100240.34
2017-10-30T21:21:15.415Z,100261.02
2017-10-30T21:23:42.921Z,100237.72
2017-10-30T21:26:10.435Z,100245.34
2017-10-30T21:28:37.978Z,100263.98
2017-10-30T21:31:05.450Z,100244.09
2017-10-30T21:33:32.931Z,100247.41
2017-10-30T21:36:00.441Z,100252.42
2017-10-30T21:38:27.896Z,100254.02
2017-10-30T21:40:55.369Z,100250.69
2017-10-30T21:43:22.839Z,100247.80
2017-10-30T21:45:50.296Z,100240.58
2017-10-30T21:48:17.766Z,100258.75
2017-10-30T21:50:45.277Z,100264.27
2017-10-30T21:53:12.806Z,100240.55
2017-10-30T21:55:40.297Z,100243.53
2017-10-30T21:58:07.816Z,100240.12
2017-10-30T22:00:35.297Z,100245.98
2017-10-30T22:03:02.766Z,100241.66
2017-10-30T22:05:30.283Z,100238.84
2017-10-30T22:07:57.786Z,100250.64
2017-10-30T22:10:25.244Z,100260.40
2017-10-30T22:12:52.755Z,100231.16
2017-10-30T22:15:20.217Z,100238.20
2017-10-30T22:17:49.510Z,100235.62
2017-10-30T22:20:17.008Z,100242.89
2017-10-30T22:22:44.480Z,100247.13
2017-10-30T22:25:11.935Z,100252.71
2017-10-30T22:27:39.408Z,100244.66
2017-10-30T22:30:06.917Z,100254.23
2017-10-30T22:32:34.384Z,100256.69
2017-10-30T22:35:01.884Z,100258.80
2017-10-30T22:37:29.374Z,100252.04
2017-10-30T22:39:56.834Z,100246.84
2017-10-30T22:42:24.356Z,100248.85
2017-10-30T22:44:51.858Z,100243.38
2017-10-30T22:47:19.321Z,100242.08
2017-10-30T22:49:46.866Z,100250.87
2017-10-30T22:52:14.334Z,100245.13
2017-10-30T22:54:41.853Z,100251.88
2017-10-30T22:57:09.312Z,100273.88
2017-10-30T22:59:36.792Z,100240.45
2017-10-30T23:02:04.281Z,100244.25
2017-10-30T23:04:31.790Z,100248.23
2017-10-30T23:06:59.241Z,100238.82
2017-10-30T23:09:26.733Z,100239.70
2017-10-30T23:11:54.245Z,100247.30
2017-10-30T23:14:21.710Z,100240.09
2017-10-30T23:16:49.165Z,100247.03
2017-10-30T23:19:16.655Z,100247.20
2017-10-30T23:21:44.134Z,100256.00
2017-10-30T23:24:11.602Z,100252.48
2017-10-30T23:26:39.100Z,100245.77
2017-10-30T23:29:06.562Z,100252.95
2017-10-30T23:31:34.029Z,100251.73
2017-10-30T23:34:01.525Z,100260.05
2017-10-30T23:36:29.009Z,100263.34
2017-10-30T23:38:56.489Z,100262.00
2017-10-30T23:41:23.973Z,100265.49
2017-10-30T23:43:51.445Z,100261.20
2017-10-30T23:46:18.902Z,100266.67
2017-10-30T23:48:46.370Z,100262.88
2017-10-30T23:51:13.878Z,100260.38
2017-10-30T23:53:41.339Z,100273.89
2017-10-30T23:56:08.827Z,100274.73
2017-10-30T23:58:36.282Z,100273.91
